sensor_id;sensor_type;location;lat;lon;timestamp;pressure;altitude;pressure_sealevel;temperature;humidity
56402;BME280;42299;35.160;26.100;2023-02-28T00:00:14;101548.63;;;16.81;100.00
56402;BME280;42299;35.160;26.100;2023-02-28T00:01:35;101557.50;;;16.82;100.00
56402;BME280;42299;35.160;26.100;2023-02-28T00:02:57;101555.72;;;16.81;100.00
56402;BME280;42299;35.160;26.100;2023-02-28T00:04:20;101553.97;;;16.80;100.00
56402;BME280;42299;35.160;26.100;2023-02-28T00:05:42;101548.63;;;16.80;100.00
56402;BME280;42299;35.160;26.100;2023-02-28T00:07:04;101545.09;;;16.79;100.00
56402;BME280;42299;35.160;26.100;2023-02-28T00:08:26;101556.63;;;16.78;100.00
56402;BME280;42299;35.160;26.100;2023-02-28T00:09:47;101563.72;;;16.78;100.00
56402;BME280;42299;35.160;26.100;2023-02-28T00:11:13;101559.28;;;16.77;100.00
56402;BME280;42299;35.160;26.100;2023-02-28T00:12:36;101555.72;;;16.78;100.00
56402;BME280;42299;35.160;26.100;2023-02-28T00:13:58;101561.06;;;16.76;100.00
56402;BME280;42299;35.160;26.100;2023-02-28T00:15:21;101562.81;;;16.74;100.00
56402;BME280;42299;35.160;26.100;2023-02-28T00:16:43;101555.72;;;16.73;100.00
56402;BME280;42299;35.160;26.100;2023-02-28T00:18:06;101561.97;;;16.73;100.00
56402;BME280;42299;35.160;26.100;2023-02-28T00:19:27;101558.41;;;16.73;100.00
56402;BME280;42299;35.160;26.100;2023-02-28T00:20:49;101542.41;;;16.73;100.00
56402;BME280;42299;35.160;26.100;2023-02-28T00:22:11;101521.97;;;16.73;100.00
56402;BME280;42299;35.160;26.100;2023-02-28T00:23:34;101484.59;;;16.75;100.00
56402;BME280;42299;35.160;26.100;2023-02-28T00:24:55;101484.63;;;16.78;100.00
56402;BME280;42299;35.160;26.100;2023-02-28T00:26:19;101496.19;;;16.83;100.00
56402;BME280;42299;35.160;26.100;2023-02-28T00:27:41;101480.19;;;16.86;100.00
56402;BME280;42299;35.160;26.100;2023-02-28T00:29:03;101473.97;;;16.92;100.00
56402;BME280;42299;35.160;26.100;2023-02-28T00:30:25;101452.63;;;16.95;100.00
56402;BME280;42299;35.160;26.100;2023-02-28T00:31:46;101428.63;;;16.96;100.00
56402;BME280;42299;35.160;26.100;2023-02-28T00:33:09;101429.53;;;16.98;100.00
56402;BME280;42299;35.160;26.100;2023-02-28T00:34:32;101433.97;;;17.01;100.00
56402;BME280;42299;35.160;26.100;2023-02-28T00:36:05;101423.28;;;17.02;100.00
56402;BME280;42299;35.160;26.100;2023-02-28T00:37:30;101408.19;;;17.03;100.00
56402;BME280;42299;35.160;26.100;2023-02-28T00:38:52;101409.94;;;17.07;100.00
56402;BME280;42299;35.160;26.100;2023-02-28T00:40:14;101416.16;;;17.09;100.00
56402;BME280;42299;35.160;26.100;2023-02-28T00:41:38;101431.31;;;17.13;99.40
56402;BME280;42299;35.160;26.100;2023-02-28T00:42:59;101445.53;;;17.15;97.35
56402;BME280;42299;35.160;26.100;2023-02-28T00:44:21;101463.31;;;17.18;96.98
56402;BME280;42299;35.160;26.100;2023-02-28T00:45:44;101471.31;;;17.18;97.11
56402;BME280;42299;35.160;26.100;2023-02-28T00:47:06;101483.75;;;17.20;95.98
56402;BME280;42299;35.160;26.100;2023-02-28T00:48:27;101496.25;;;17.20;93.46
56402;BME280;42299;35.160;26.100;2023-02-28T00:49:50;101486.44;;;17.19;93.62
56402;BME280;42299;35.160;26.100;2023-02-28T00:51:11;101485.56;;;17.18;92.95
56402;BME280;42299;35.160;26.100;2023-02-28T00:52:33;101473.97;;;17.21;81.46
56402;BME280;42299;35.160;26.100;2023-02-28T00:53:55;101452.63;;;17.33;68.45
56402;BME280;42299;35.160;26.100;2023-02-28T00:55:18;101427.72;;;17.44;65.17
56402;BME280;42299;35.160;26.100;2023-02-28T00:56:43;101426.78;;;17.54;62.15
56402;BME280;42299;35.160;26.100;2023-02-28T00:58:06;101419.69;;;17.61;62.34
56402;BME280;42299;35.160;26.100;2023-02-28T00:59:28;101411.69;;;17.63;60.72
56402;BME280;42299;35.160;26.100;2023-02-28T01:00:51;101386.72;;;17.70;59.84
56402;BME280;42299;35.160;26.100;2023-02-28T01:02:13;101375.13;;;17.75;57.45
56402;BME280;42299;35.160;26.100;2023-02-28T01:03:35;101389.34;;;17.80;54.68
56402;BME280;42299;35.160;26.100;2023-02-28T01:04:57;101366.16;;;17.87;48.01
56402;BME280;42299;35.160;26.100;2023-02-28T01:06:19;101340.28;;;18.00;43.80
56402;BME280;42299;35.160;26.100;2023-02-28T01:07:41;101326.88;;;18.10;42.78
56402;BME280;42299;35.160;26.100;2023-02-28T01:09:03;101356.19;;;18.22;40.92
56402;BME280;42299;35.160;26.100;2023-02-28T01:10:25;101371.16;;;18.45;40.11
56402;BME280;42299;35.160;26.100;2023-02-28T01:11:53;101386.25;;;18.58;40.00
56402;BME280;42299;35.160;26.100;2023-02-28T01:13:15;101364.81;;;18.67;39.46
56402;BME280;42299;35.160;26.100;2023-02-28T01:14:37;101371.00;;;18.72;38.68
56402;BME280;42299;35.160;26.100;2023-02-28T01:16:00;101376.34;;;18.77;37.52
56402;BME280;42299;35.160;26.100;2023-02-28T01:17:21;101368.22;;;18.84;36.08
56402;BME280;42299;35.160;26.100;2023-02-28T01:18:43;101394.03;;;18.91;35.80
56402;BME280;42299;35.160;26.100;2023-02-28T01:20:06;101385.09;;;18.95;35.22
56402;BME280;42299;35.160;26.100;2023-02-28T01:21:28;101395.75;;;18.98;34.97
56402;BME280;42299;35.160;26.100;2023-02-28T01:22:50;101396.63;;;19.00;35.34
56402;BME280;42299;35.160;26.100;2023-02-28T01:24:13;101375.22;;;19.00;35.07
56402;BME280;42299;35.160;26.100;2023-02-28T01:25:34;101380.50;;;19.09;34.85
56402;BME280;42299;35.160;26.100;2023-02-28T01:27:00;101349.25;;;19.11;34.87
56402;BME280;42299;35.160;26.100;2023-02-28T01:28:21;101350.94;;;19.19;33.66
56402;BME280;42299;35.160;26.100;2023-02-28T01:29:44;101350.81;;;19.31;33.16
56402;BME280;42299;35.160;26.100;2023-02-28T01:31:07;101346.28;;;19.37;33.49
56402;BME280;42299;35.160;26.100;2023-02-28T01:32:31;101352.59;;;19.33;34.04
56402;BME280;42299;35.160;26.100;2023-02-28T01:33:53;101357.97;;;19.30;34.77
56402;BME280;42299;35.160;26.100;2023-02-28T01:35:15;101343.75;;;19.24;35.59
56402;BME280;42299;35.160;26.100;2023-02-28T01:36:38;101329.53;;;19.17;36.17
56402;BME280;42299;35.160;26.100;2023-02-28T01:38:01;101342.03;;;19.17;35.68
56402;BME280;42299;35.160;26.100;2023-02-28T01:39:22;101365.28;;;19.15;35.28
56402;BME280;42299;35.160;26.100;2023-02-28T01:40:44;101347.38;;;19.18;35.12
56402;BME280;42299;35.160;26.100;2023-02-28T01:42:08;101326.88;;;19.19;35.30
56402;BME280;42299;35.160;26.100;2023-02-28T01:43:35;101334.88;;;19.19;35.61
56402;BME280;42299;35.160;26.100;2023-02-28T01:45:21;101353.69;;;19.14;36.29
56402;BME280;42299;35.160;26.100;2023-02-28T01:46:44;101340.34;;;19.09;36.14
56402;BME280;42299;35.160;26.100;2023-02-28T01:48:09;101344.81;;;19.09;36.20
56402;BME280;42299;35.160;26.100;2023-02-28T01:49:31;101351.09;;;19.06;36.69
56402;BME280;42299;35.160;26.100;2023-02-28T01:50:55;101338.66;;;19.02;36.57
56402;BME280;42299;35.160;26.100;2023-02-28T01:52:21;101336.00;;;18.98;36.66
56402;BME280;42299;35.160;26.100;2023-02-28T01:53:51;101350.31;;;18.95;36.67
56402;BME280;42299;35.160;26.100;2023-02-28T01:55:15;101361.03;;;18.92;36.58
56402;BME280;42299;35.160;26.100;2023-02-28T01:56:38;101353.00;;;18.92;36.80
56402;BME280;42299;35.160;26.100;2023-02-28T01:58:04;101358.41;;;18.89;36.48
56402;BME280;42299;35.160;26.100;2023-02-28T01:59:31;101359.28;;;18.90;36.63
56402;BME280;42299;35.160;26.100;2023-02-28T02:00:55;101378.03;;;18.88;37.38
56402;BME280;42299;35.160;26.100;2023-02-28T02:02:19;101355.69;;;18.91;37.21
56402;BME280;42299;35.160;26.100;2023-02-28T02:03:42;101360.13;;;18.96;36.81
56402;BME280;42299;35.160;26.100;2023-02-28T02:05:08;101355.53;;;19.06;36.75
56402;BME280;42299;35.160;26.100;2023-02-28T02:06:31;101343.94;;;19.08;37.39
56402;BME280;42299;35.160;26.100;2023-02-28T02:07:58;101362.69;;;19.07;37.76
56402;BME280;42299;35.160;26.100;2023-02-28T02:09:22;101367.16;;;19.03;37.41
56402;BME280;42299;35.160;26.100;2023-02-28T02:10:45;101368.97;;;19.00;37.94
56402;BME280;42299;35.160;26.100;2023-02-28T02:12:15;101385.94;;;18.97;38.13
56402;BME280;42299;35.160;26.100;2023-02-28T02:13:56;101374.44;;;18.89;38.68
56402;BME280;42299;35.160;26.100;2023-02-28T02:15:25;101385.16;;;18.86;38.97
56402;BME280;42299;35.160;26.100;2023-02-28T02:17:06;101389.59;;;18.89;38.55
56402;BME280;42299;35.160;26.100;2023-02-28T02:18:34;101393.13;;;18.91;38.52
56402;BME280;42299;35.160;26.100;2023-02-28T02:20:22;101394.97;;;18.87;39.00
56402;BME280;42299;35.160;26.100;2023-02-28T02:24:07;101400.41;;;18.75;40.48
56402;BME280;42299;35.160;26.100;2023-02-28T02:25:40;101433.41;;;18.73;40.41
56402;BME280;42299;35.160;26.100;2023-02-28T02:27:13;101453.03;;;18.73;39.72
56402;BME280;42299;35.160;26.100;2023-02-28T02:31:06;101451.22;;;18.78;38.11
56402;BME280;42299;35.160;26.100;2023-02-28T02:34:34;101451.88;;;19.07;36.39
56402;BME280;42299;35.160;26.100;2023-02-28T02:36:03;101442.97;;;19.05;36.31
56402;BME280;42299;35.160;26.100;2023-02-28T02:37:34;101453.72;;;19.01;36.84
56402;BME280;42299;35.160;26.100;2023-02-28T02:39:04;101475.19;;;18.95;37.59
56402;BME280;42299;35.160;26.100;2023-02-28T02:40:30;101477.03;;;18.88;38.00
56402;BME280;42299;35.160;26.100;2023-02-28T02:41:59;101484.16;;;18.85;39.11
56402;BME280;42299;35.160;26.100;2023-02-28T02:43:25;101477.97;;;18.81;40.40
56402;BME280;42299;35.160;26.100;2023-02-28T02:44:57;101471.72;;;18.78;43.41
56402;BME280;42299;35.160;26.100;2023-02-28T02:46:26;101467.31;;;18.75;48.28
56402;BME280;42299;35.160;26.100;2023-02-28T02:47:54;101453.94;;;18.74;50.77
56402;BME280;42299;35.160;26.100;2023-02-28T02:49:20;101429.88;;;18.69;52.86
56402;BME280;42299;35.160;26.100;2023-02-28T02:50:51;101394.28;;;18.62;54.71
56402;BME280;42299;35.160;26.100;2023-02-28T02:52:16;101411.25;;;18.57;56.50
56402;BME280;42299;35.160;26.100;2023-02-28T02:53:42;101400.53;;;18.58;59.12
56402;BME280;42299;35.160;26.100;2023-02-28T02:55:08;101440.63;;;18.60;59.77
56402;BME280;42299;35.160;26.100;2023-02-28T02:56:33;101465.59;;;18.59;60.40
56402;BME280;42299;35.160;26.100;2023-02-28T02:57:59;101482.56;;;18.56;61.36
56402;BME280;42299;35.160;26.100;2023-02-28T02:59:25;101469.19;;;18.52;62.67
56402;BME280;42299;35.160;26.100;2023-02-28T03:00:53;101486.16;;;18.49;63.81
56402;BME280;42299;35.160;26.100;2023-02-28T03:02:17;101477.22;;;18.47;65.57
56402;BME280;42299;35.160;26.100;2023-02-28T03:03:41;101479.00;;;18.48;67.00
56402;BME280;42299;35.160;26.100;2023-02-28T03:05:08;101476.34;;;18.50;67.53
56402;BME280;42299;35.160;26.100;2023-02-28T03:06:37;101451.38;;;18.48;68.55
56402;BME280;42299;35.160;26.100;2023-02-28T03:07:58;101480.78;;;18.48;69.02
56402;BME280;42299;35.160;26.100;2023-02-28T03:09:23;101462.97;;;18.50;69.15
56402;BME280;42299;35.160;26.100;2023-02-28T03:10:49;101470.09;;;18.51;69.10
56402;BME280;42299;35.160;26.100;2023-02-28T03:12:12;101463.84;;;18.50;69.31
56402;BME280;42299;35.160;26.100;2023-02-28T03:15:40;101480.84;;;18.42;70.46
56402;BME280;42299;35.160;26.100;2023-02-28T03:17:26;101478.16;;;18.39;71.46
56402;BME280;42299;35.160;26.100;2023-02-28T03:18:57;101471.06;;;18.35;72.28
56402;BME280;42299;35.160;26.100;2023-02-28T03:20:35;101455.06;;;18.30;73.05
56402;BME280;42299;35.160;26.100;2023-02-28T03:22:18;101434.56;;;18.26;73.75
56402;BME280;42299;35.160;26.100;2023-02-28T03:23:50;101429.25;;;18.23;74.02
56402;BME280;42299;35.160;26.100;2023-02-28T03:25:27;101426.53;;;18.26;71.75
56402;BME280;42299;35.160;26.100;2023-02-28T03:26:55;101432.78;;;18.29;71.53
56402;BME280;42299;35.160;26.100;2023-02-28T03:28:27;101440.78;;;18.26;72.24
56402;BME280;42299;35.160;26.100;2023-02-28T03:29:59;101459.53;;;18.23;72.67
56402;BME280;42299;35.160;26.100;2023-02-28T03:31:28;101456.88;;;18.22;73.00
56402;BME280;42299;35.160;26.100;2023-02-28T03:32:57;101464.88;;;18.20;72.66
56402;BME280;42299;35.160;26.100;2023-02-28T03:34:25;101464.88;;;18.20;73.33
56402;BME280;42299;35.160;26.100;2023-02-28T03:35:51;101484.47;;;18.19;73.08
56402;BME280;42299;35.160;26.100;2023-02-28T03:37:18;101479.13;;;18.27;71.51
56402;BME280;42299;35.160;26.100;2023-02-28T03:38:47;101463.94;;;18.32;71.05
56402;BME280;42299;35.160;26.100;2023-02-28T03:40:14;101466.59;;;18.33;71.25
56402;BME280;42299;35.160;26.100;2023-02-28T03:41:38;101456.81;;;18.36;71.68
56402;BME280;42299;35.160;26.100;2023-02-28T03:43:10;101455.03;;;18.38;72.22
56402;BME280;42299;35.160;26.100;2023-02-28T03:44:39;101463.00;;;18.41;72.37
56402;BME280;42299;35.160;26.100;2023-02-28T03:46:06;101449.63;;;18.42;72.43
56402;BME280;42299;35.160;26.100;2023-02-28T03:47:33;101438.94;;;18.42;72.76
56402;BME280;42299;35.160;26.100;2023-02-28T03:49:02;101435.38;;;18.39;73.07
56402;BME280;42299;35.160;26.100;2023-02-28T03:50:31;101439.88;;;18.37;73.27
56402;BME280;42299;35.160;26.100;2023-02-28T03:51:58;101427.41;;;18.34;73.38
56402;BME280;42299;35.160;26.100;2023-02-28T03:53:27;101422.94;;;18.31;74.10
56402;BME280;42299;35.160;26.100;2023-02-28T03:54:53;101409.59;;;18.28;74.19
56402;BME280;42299;35.160;26.100;2023-02-28T03:56:18;101405.16;;;18.27;73.88
56402;BME280;42299;35.160;26.100;2023-02-28T03:57:51;101411.38;;;18.28;73.18
56402;BME280;42299;35.160;26.100;2023-02-28T03:59:18;101415.84;;;18.29;73.71
56402;BME280;42299;35.160;26.100;2023-02-28T04:00:46;101415.84;;;18.26;73.96
56402;BME280;42299;35.160;26.100;2023-02-28T04:02:09;101422.97;;;18.25;73.94
56402;BME280;42299;35.160;26.100;2023-02-28T04:03:31;101431.00;;;18.27;73.61
56402;BME280;42299;35.160;26.100;2023-02-28T04:04:53;101439.00;;;18.28;72.89
56402;BME280;42299;35.160;26.100;2023-02-28T04:06:18;101449.69;;;18.31;72.55
56402;BME280;42299;35.160;26.100;2023-02-28T04:07:40;101436.31;;;18.31;71.94
56402;BME280;42299;35.160;26.100;2023-02-28T04:09:05;101432.75;;;18.34;70.67
56402;BME280;42299;35.160;26.100;2023-02-28T04:10:26;101424.72;;;18.37;70.00
56402;BME280;42299;35.160;26.100;2023-02-28T04:11:50;101430.91;;;18.42;69.53
56402;BME280;42299;35.160;26.100;2023-02-28T04:13:12;101424.69;;;18.43;69.34
56402;BME280;42299;35.160;26.100;2023-02-28T04:14:34;101432.66;;;18.48;68.85
56402;BME280;42299;35.160;26.100;2023-02-28T04:15:57;101434.44;;;18.50;67.81
56402;BME280;42299;35.160;26.100;2023-02-28T04:17:19;101446.03;;;18.51;67.69
56402;BME280;42299;35.160;26.100;2023-02-28T04:18:41;101440.69;;;18.51;68.11
56402;BME280;42299;35.160;26.100;2023-02-28T04:20:04;101444.28;;;18.44;68.23
56402;BME280;42299;35.160;26.100;2023-02-28T04:21:31;101438.94;;;18.42;68.66
56402;BME280;42299;35.160;26.100;2023-02-28T04:22:53;101428.25;;;18.42;69.02
56402;BME280;42299;35.160;26.100;2023-02-28T04:24:19;101436.28;;;18.42;69.29
56402;BME280;42299;35.160;26.100;2023-02-28T04:25:42;101428.25;;;18.44;69.92
56402;BME280;42299;35.160;26.100;2023-02-28T04:27:03;101421.13;;;18.40;70.35
56402;BME280;42299;35.160;26.100;2023-02-28T04:28:25;101411.34;;;18.37;71.32
56402;BME280;42299;35.160;26.100;2023-02-28T04:29:47;101416.69;;;18.34;71.87
56402;BME280;42299;35.160;26.100;2023-02-28T04:31:10;101405.13;;;18.33;72.01
56402;BME280;42299;35.160;26.100;2023-02-28T04:32:31;101413.16;;;18.30;72.32
56402;BME280;42299;35.160;26.100;2023-02-28T04:33:54;101398.91;;;18.27;73.04
56402;BME280;42299;35.160;26.100;2023-02-28T04:35:16;101395.38;;;18.23;73.38
56402;BME280;42299;35.160;26.100;2023-02-28T04:36:37;101416.78;;;18.22;73.33
56402;BME280;42299;35.160;26.100;2023-02-28T04:38:00;101412.31;;;18.22;72.73
56402;BME280;42299;35.160;26.100;2023-02-28T04:39:23;101415.88;;;18.24;72.51
56402;BME280;42299;35.160;26.100;2023-02-28T04:40:45;101414.97;;;18.25;72.43
56402;BME280;42299;35.160;26.100;2023-02-28T04:42:06;101417.63;;;18.25;71.57
56402;BME280;42299;35.160;26.100;2023-02-28T04:43:29;101419.41;;;18.26;71.10
56402;BME280;42299;35.160;26.100;2023-02-28T04:44:52;101428.31;;;18.27;70.99
56402;BME280;42299;35.160;26.100;2023-02-28T04:46:14;101432.78;;;18.28;70.59
56402;BME280;42299;35.160;26.100;2023-02-28T04:47:36;101442.53;;;18.32;69.04
56402;BME280;42299;35.160;26.100;2023-02-28T04:48:58;101448.78;;;18.37;68.18
56402;BME280;42299;35.160;26.100;2023-02-28T04:50:20;101453.19;;;18.41;67.24
56402;BME280;42299;35.160;26.100;2023-02-28T04:51:42;101471.91;;;18.44;65.64
56402;BME280;42299;35.160;26.100;2023-02-28T04:53:04;101475.44;;;18.51;64.42
56402;BME280;42299;35.160;26.100;2023-02-28T04:54:27;101486.13;;;18.55;64.44
56402;BME280;42299;35.160;26.100;2023-02-28T04:55:49;101490.56;;;18.58;64.21
56402;BME280;42299;35.160;26.100;2023-02-28T04:57:11;101519.97;;;18.61;63.95
56402;BME280;42299;35.160;26.100;2023-02-28T04:58:33;101541.38;;;18.64;63.80
56402;BME280;42299;35.160;26.100;2023-02-28T04:59:55;101569.00;;;18.66;63.64
56402;BME280;42299;35.160;26.100;2023-02-28T05:01:23;101592.16;;;18.67;63.93
56402;BME280;42299;35.160;26.100;2023-02-28T05:02:45;101598.41;;;18.66;63.94
56402;BME280;42299;35.160;26.100;2023-02-28T05:04:08;101615.34;;;18.68;64.34
56402;BME280;42299;35.160;26.100;2023-02-28T05:05:31;101617.13;;;18.69;64.11
56402;BME280;42299;35.160;26.100;2023-02-28T05:06:52;101611.75;;;18.72;64.18
56402;BME280;42299;35.160;26.100;2023-02-28T05:08:16;101623.34;;;18.73;64.13
56402;BME280;42299;35.160;26.100;2023-02-28T05:09:39;101624.25;;;18.73;64.50
56402;BME280;42299;35.160;26.100;2023-02-28T05:11:02;101633.16;;;18.74;64.78
56402;BME280;42299;35.160;26.100;2023-02-28T05:12:24;101629.59;;;18.76;64.65
56402;BME280;42299;35.160;26.100;2023-02-28T05:13:46;101634.03;;;18.79;64.89
56402;BME280;42299;35.160;26.100;2023-02-28T05:15:12;101645.63;;;18.81;65.21
56402;BME280;42299;35.160;26.100;2023-02-28T05:16:34;101634.91;;;18.81;65.29
56402;BME280;42299;35.160;26.100;2023-02-28T05:17:57;101645.63;;;18.82;65.71
56402;BME280;42299;35.160;26.100;2023-02-28T05:19:19;101661.66;;;18.85;66.06
56402;BME280;42299;35.160;26.100;2023-02-28T05:20:43;101661.66;;;18.88;66.31
56402;BME280;42299;35.160;26.100;2023-02-28T05:22:11;101667.91;;;18.90;66.92
56402;BME280;42299;35.160;26.100;2023-02-28T05:23:35;101669.66;;;18.91;67.41
56402;BME280;42299;35.160;26.100;2023-02-28T05:24:58;101655.38;;;18.92;67.73
56402;BME280;42299;35.160;26.100;2023-02-28T05:26:20;101649.13;;;18.95;67.48
56402;BME280;42299;35.160;26.100;2023-02-28T05:27:41;101638.44;;;18.96;67.92
56402;BME280;42299;35.160;26.100;2023-02-28T05:29:03;101629.47;;;19.00;67.93
56402;BME280;42299;35.160;26.100;2023-02-28T05:30:25;101634.81;;;19.02;67.98
56402;BME280;42299;35.160;26.100;2023-02-28T05:31:48;101630.34;;;19.05;68.43
56402;BME280;42299;35.160;26.100;2023-02-28T05:33:10;101636.53;;;19.10;68.16
56402;BME280;42299;35.160;26.100;2023-02-28T05:34:33;101635.66;;;19.15;68.69
56402;BME280;42299;35.160;26.100;2023-02-28T05:35:55;101639.19;;;19.20;68.88
56402;BME280;42299;35.160;26.100;2023-02-28T05:37:16;101640.97;;;19.22;68.94
56402;BME280;42299;35.160;26.100;2023-02-28T05:38:39;101653.44;;;19.29;69.97
56402;BME280;42299;35.160;26.100;2023-02-28T05:40:02;101652.50;;;19.35;70.83
56402;BME280;42299;35.160;26.100;2023-02-28T05:41:26;101653.34;;;19.37;71.13
56402;BME280;42299;35.160;26.100;2023-02-28T05:42:50;101645.28;;;19.43;70.02
56402;BME280;42299;35.160;26.100;2023-02-28T05:44:12;101632.81;;;19.46;69.64
56402;BME280;42299;35.160;26.100;2023-02-28T05:45:35;101615.84;;;19.49;68.94
56402;BME280;42299;35.160;26.100;2023-02-28T05:46:56;101626.50;;;19.50;69.38
56402;BME280;42299;35.160;26.100;2023-02-28T05:48:19;101649.72;;;19.50;69.84
56402;BME280;42299;35.160;26.100;2023-02-28T05:49:40;101663.13;;;19.50;70.29
56402;BME280;42299;35.160;26.100;2023-02-28T05:51:02;101681.88;;;19.50;70.37
56402;BME280;42299;35.160;26.100;2023-02-28T05:52:25;101714.91;;;19.50;70.92
56402;BME280;42299;35.160;26.100;2023-02-28T05:53:47;101736.34;;;19.52;71.80
56402;BME280;42299;35.160;26.100;2023-02-28T05:55:11;101756.88;;;19.53;71.79
56402;BME280;42299;35.160;26.100;2023-02-28T05:56:34;101760.41;;;19.57;71.94
56402;BME280;42299;35.160;26.100;2023-02-28T05:57:58;101743.44;;;19.61;71.95
56402;BME280;42299;35.160;26.100;2023-02-28T05:59:19;101735.31;;;19.71;72.65
56402;BME280;42299;35.160;26.100;2023-02-28T06:00:42;101720.09;;;19.79;74.12
56402;BME280;42299;35.160;26.100;2023-02-28T06:02:03;101709.31;;;19.87;75.40
56402;BME280;42299;35.160;26.100;2023-02-28T06:03:26;101685.16;;;19.93;76.03
56402;BME280;42299;35.160;26.100;2023-02-28T06:04:48;101669.00;;;19.99;77.26
56402;BME280;42299;35.160;26.100;2023-02-28T06:06:10;101670.78;;;20.00;77.89
56402;BME280;42299;35.160;26.100;2023-02-28T06:07:33;101660.03;;;20.05;78.24
56402;BME280;42299;35.160;26.100;2023-02-28T06:08:56;101650.19;;;20.08;78.17
56402;BME280;42299;35.160;26.100;2023-02-28T06:10:20;101649.19;;;20.17;78.76
56402;BME280;42299;35.160;26.100;2023-02-28T06:11:43;101624.97;;;20.23;79.20
56402;BME280;42299;35.160;26.100;2023-02-28T06:13:05;101615.09;;;20.33;80.35
56402;BME280;42299;35.160;26.100;2023-02-28T06:14:28;101617.63;;;20.46;80.44
56402;BME280;42299;35.160;26.100;2023-02-28T06:15:51;101617.47;;;20.58;80.54
56402;BME280;42299;35.160;26.100;2023-02-28T06:17:14;101615.53;;;20.71;80.88
56402;BME280;42299;35.160;26.100;2023-02-28T06:18:36;101610.00;;;20.85;80.23
56402;BME280;42299;35.160;26.100;2023-02-28T06:19:58;101615.16;;;21.00;77.24
56402;BME280;42299;35.160;26.100;2023-02-28T06:21:20;101606.06;;;21.10;74.03
56402;BME280;42299;35.160;26.100;2023-02-28T06:22:43;101598.81;;;21.18;72.70
56402;BME280;42299;35.160;26.100;2023-02-28T06:24:06;101600.53;;;21.24;71.95
56402;BME280;42299;35.160;26.100;2023-02-28T06:25:30;101595.16;;;21.24;71.89
56402;BME280;42299;35.160;26.100;2023-02-28T06:26:51;101605.00;;;21.25;72.67
56402;BME280;42299;35.160;26.100;2023-02-28T06:28:13;101608.56;;;21.25;73.56
56402;BME280;42299;35.160;26.100;2023-02-28T06:29:36;101610.31;;;21.28;75.01
56402;BME280;42299;35.160;26.100;2023-02-28T06:31:06;101598.63;;;21.32;76.10
56402;BME280;42299;35.160;26.100;2023-02-28T06:32:28;101586.06;;;21.32;76.77
56402;BME280;42299;35.160;26.100;2023-02-28T06:33:50;101574.56;;;21.24;79.25
56402;BME280;42299;35.160;26.100;2023-02-28T06:35:12;101573.81;;;21.13;82.03
56402;BME280;42299;35.160;26.100;2023-02-28T06:36:35;101575.72;;;21.02;84.33
56402;BME280;42299;35.160;26.100;2023-02-28T06:37:57;101572.31;;;20.91;87.03
56402;BME280;42299;35.160;26.100;2023-02-28T06:39:19;101569.72;;;20.85;89.37
56402;BME280;42299;35.160;26.100;2023-02-28T06:40:44;101567.94;;;20.85;91.49
56402;BME280;42299;35.160;26.100;2023-02-28T06:42:05;101567.06;;;20.83;92.85
56402;BME280;42299;35.160;26.100;2023-02-28T06:43:28;101563.47;;;20.83;93.86
56402;BME280;42299;35.160;26.100;2023-02-28T06:44:51;101555.34;;;20.89;94.39
56402;BME280;42299;35.160;26.100;2023-02-28T06:46:14;101557.97;;;20.93;93.76
56402;BME280;42299;35.160;26.100;2023-02-28T06:47:37;101565.06;;;20.99;94.28
56402;BME280;42299;35.160;26.100;2023-02-28T06:48:59;101565.84;;;21.05;93.72
56402;BME280;42299;35.160;26.100;2023-02-28T06:50:22;101572.94;;;21.09;93.15
56402;BME280;42299;35.160;26.100;2023-02-28T06:51:44;101593.50;;;21.12;93.00
56402;BME280;42299;35.160;26.100;2023-02-28T06:53:07;101633.75;;;21.14;92.67
56402;BME280;42299;35.160;26.100;2023-02-28T06:54:29;101657.97;;;21.09;92.74
56402;BME280;42299;35.160;26.100;2023-02-28T06:55:53;101683.09;;;21.06;93.09
56402;BME280;42299;35.160;26.100;2023-02-28T06:57:15;101669.72;;;21.02;93.41
56402;BME280;42299;35.160;26.100;2023-02-28T06:58:38;101663.41;;;21.06;94.74
56402;BME280;42299;35.160;26.100;2023-02-28T07:00:04;101660.59;;;21.15;95.72
56402;BME280;42299;35.160;26.100;2023-02-28T07:01:28;101670.34;;;21.24;95.49
56402;BME280;42299;35.160;26.100;2023-02-28T07:02:52;101681.00;;;21.33;95.43
56402;BME280;42299;35.160;26.100;2023-02-28T07:04:15;101695.25;;;21.38;95.78
56402;BME280;42299;35.160;26.100;2023-02-28T07:05:38;101694.25;;;21.43;96.38
56402;BME280;42299;35.160;26.100;2023-02-28T07:07:01;101676.28;;;21.47;97.12
56402;BME280;42299;35.160;26.100;2023-02-28T07:08:23;101670.81;;;21.55;97.23
56402;BME280;42299;35.160;26.100;2023-02-28T07:09:46;101657.31;;;21.59;96.54
56402;BME280;42299;35.160;26.100;2023-02-28T07:11:10;101654.53;;;21.65;95.96
56402;BME280;42299;35.160;26.100;2023-02-28T07:12:32;101667.00;;;21.68;95.24
56402;BME280;42299;35.160;26.100;2023-02-28T07:13:55;101681.34;;;21.68;94.13
56402;BME280;42299;35.160;26.100;2023-02-28T07:15:18;101684.03;;;21.67;93.31
56402;BME280;42299;35.160;26.100;2023-02-28T07:16:40;101681.34;;;21.67;92.04
56402;BME280;42299;35.160;26.100;2023-02-28T07:18:03;101658.94;;;21.69;89.20
56402;BME280;42299;35.160;26.100;2023-02-28T07:19:25;101643.69;;;21.70;87.75
56402;BME280;42299;35.160;26.100;2023-02-28T07:20:47;101623.16;;;21.66;88.29
56402;BME280;42299;35.160;26.100;2023-02-28T07:22:10;101638.44;;;21.61;88.84